Terminal Aerodrome Forecast
Issued by NWS Tampa Bay Area, FL

Home | Current Version | Previous Version | Text Only | Print | Product List | Glossary On
Versions: 1 2 3 4 5 6 7 8 9 10 11 12 13 14
000
FTUS42 KTBW 061120
TAFSRQ
TAF
KSRQ 061120Z 0612/0712 03006KT P6SM FEW010 SCT250
     FM061500 03007KT P6SM FEW025 SCT250
     FM061800 31011KT P6SM FEW045 SCT250
     FM070000 35007KT P6SM SCT060 SCT250
     FM070300 06004KT P6SM SCT250=

USA.gov is the U.S. government's official web portal to all federal, state and local government web resources and services.